Flight Track Log - Related Links

Times and Time Zones

All times are in EDT time to prevent confusion due to time zone crossing. See the SWA3321 flight status page for this flight to view local times or setup timezone preferences in your user account.

Time Position Orientation Groundspeed Altitude Reporting Facility
EDT Latitude Longitude Course Direction KTS MPH feet Rate Location/Type
Tue 11:38:21 AM 28.4333 -81.3000 348° North 162 186 600  Level Orlando TRACON
Tue 11:39:34 AM 28.5000 -81.3167 348° North 232 267 3,100 2,120 Climbing Orlando TRACON
Tue 11:40:34 AM 28.5667 -81.3333 348° North 263 303 5,300 2,524 Climbing Orlando TRACON
Tue 11:41:40 AM 28.6500 -81.3500 350° North 278 320 8,400 2,448 Climbing Orlando TRACON
Tue 11:43:55 AM 28.8483 -81.3661 356° North 322 371 13,500 2,400 Climbing Jacksonville Center
Tue 11:44:55 AM 28.9528 -81.3764 355° North 351 404 16,200 2,700 Climbing Jacksonville Center
Tue 11:45:55 AM 29.0594 -81.3842 356° North 371 427 18,900 2,600 Climbing Jacksonville Center
Tue 11:46:55 AM 29.1700 -81.3967 354° North 381 438 21,400 2,400 Climbing Jacksonville Center
Tue 11:47:55 AM 29.2831 -81.4092 354° North 393 452 23,700 2,200 Climbing Jacksonville Center
Tue 11:48:55 AM 29.4000 -81.4194 356° North 404 465 25,800 1,833 Climbing Jacksonville Center
Tue 11:50:55 AM 29.6364 -81.4708 349° North 428 493 29,200 1,867 Climbing Jacksonville Center
Tue 11:51:55 AM 29.7558 -81.5075 345° North 433 498 31,400 1,900 Climbing Jacksonville Center
Tue 11:52:55 AM 29.8753 -81.5439 345° North 439 505 33,000 1,050 Climbing Jacksonville Center
Tue 11:53:55 AM 29.9925 -81.5758 347° North 439 505 33,500 1,150 Climbing Jacksonville Center
Tue 11:54:55 AM 30.1114 -81.5694 North 427 491 35,300 1,550 Climbing Jacksonville Center
Tue 11:55:55 AM 30.2367 -81.5558 North 427 491 36,600 1,300 Climbing Jacksonville Center
Tue 11:56:55 AM 30.3594 -81.5397 North 432 497 37,900 1,200 Climbing Jacksonville Center
Tue 11:57:55 AM 30.4783 -81.5258 North 432 497 39,000 550 Climbing Jacksonville Center
Tue 11:58:55 AM 30.6014 -81.5097 North 437 503 39,000  Level Jacksonville Center
Tue 11:59:55 AM 30.7183 -81.5008 North 437 503 39,000  Level Jacksonville Center
Tue 12:00:55 PM 30.8392 -81.4869 North 437 503 39,000  Level Jacksonville Center
Tue 12:01:55 PM 30.9558 -81.4731 North 432 497 39,000  Level Jacksonville Center
Tue 12:02:55 PM 31.0642 -81.4472 12° North 426 490 39,000  Level Jacksonville Center
Tue 12:03:55 PM 31.1764 -81.3894 24° Northeast 442 509 39,000  Level Jacksonville Center
Tue 12:04:55 PM 31.2925 -81.3292 24° Northeast 442 509 39,000  Level Jacksonville Center
Tue 12:05:55 PM 31.4003 -81.2667 26° Northeast 429 494 39,000  Level Jacksonville Center
Tue 12:06:55 PM 31.5247 -81.1964 26° Northeast 441 507 39,000  Level Jacksonville Center
Tue 12:07:55 PM 31.6367 -81.1356 25° Northeast 441 507 39,000  Level Jacksonville Center
Tue 12:08:55 PM 31.7361 -81.0800 25° Northeast 441 507 39,000  Level Jacksonville Center
Tue 12:09:55 PM 31.8644 -81.0089 25° Northeast 441 507 39,000  Level Jacksonville Center
Tue 12:10:55 PM 31.9681 -80.9531 25° Northeast 441 507 39,000  Level Jacksonville Center
Tue 12:11:55 PM 32.0922 -80.8842 25° Northeast 441 507 39,000  Level Jacksonville Center
Tue 12:12:55 PM 32.2081 -80.8228 24° Northeast 446 513 39,000  Level Jacksonville Center
Tue 12:13:55 PM 32.3114 -80.7639 26° Northeast 441 507 39,000  Level Jacksonville Center
Tue 12:14:55 PM 32.4333 -80.6919 26° Northeast 441 507 39,000  Level Jacksonville Center
Tue 12:15:55 PM 32.5492 -80.6278 25° Northeast 441 507 39,000  Level Jacksonville Center
Tue 12:16:55 PM 32.6586 -80.5658 25° Northeast 441 507 39,000  Level Jacksonville Center
Tue 12:17:55 PM 32.7744 -80.5011 25° Northeast 441 507 39,000  Level Jacksonville Center
Tue 12:18:55 PM 32.8881 -80.4361 26° Northeast 441 507 39,000  Level Jacksonville Center
Tue 12:19:55 PM 32.9933 -80.3764 25° Northeast 447 514 39,000  Level Jacksonville Center
Tue 12:20:55 PM 33.1192 -80.3108 24° Northeast 449 517 39,000  Level Jacksonville Center
Tue 12:21:55 PM 33.2203 -80.2508 26° Northeast 449 517 39,000  Level Jacksonville Center
Tue 12:22:55 PM 33.3356 -80.1828 26° Northeast 454 522 39,000  Level Jacksonville Center
Tue 12:23:55 PM 33.4450 -80.1197 26° Northeast 443 510 39,000  Level Jacksonville Center
Tue 12:24:55 PM 33.5581 -80.0511 27° Northeast 443 510 39,000  Level Jacksonville Center
Tue 12:25:55 PM 33.6714 -79.9878 25° Northeast 443 510 39,000  Level Jacksonville Center
Tue 12:26:55 PM 33.7828 -79.9217 26° Northeast 438 504 39,000  Level Jacksonville Center
Tue 12:27:55 PM 33.8981 -79.8550 26° Northeast 438 504 39,000  Level Jacksonville Center
Tue 12:28:55 PM 34.0111 -79.7886 26° Northeast 438 504 39,000  Level Jacksonville Center
Tue 12:29:55 PM 34.1242 -79.7194 27° Northeast 438 504 39,000  Level Jacksonville Center
Tue 12:31:57 PM 34.3658 -79.5872 24° Northeast 457 526 39,000  Level Washington Center
Tue 12:32:57 PM 34.4806 -79.5297 22° Northeast 445 512 39,000  Level Washington Center
Tue 12:33:57 PM 34.5908 -79.4694 24° Northeast 440 506 39,000  Level Washington Center
Tue 12:34:57 PM 34.7056 -79.4119 22° Northeast 440 506 39,000  Level Washington Center
Tue 12:35:57 PM 34.8200 -79.3514 23° Northeast 440 506 39,000  Level Washington Center
Tue 12:36:57 PM 34.9325 -79.2908 24° Northeast 440 506 39,000  Level Washington Center
Tue 12:37:58 PM 35.0492 -79.2275 24° Northeast 445 512 39,000  Level Washington Center
Tue 12:38:57 PM 35.1617 -79.1692 23° Northeast 445 512 39,000  Level Washington Center
Tue 12:39:57 PM 35.2781 -79.1081 23° Northeast 445 512 39,000  Level Washington Center
Tue 12:40:58 PM 35.3925 -79.0494 23° Northeast 445 512 39,000  Level Washington Center
Tue 12:41:57 PM 35.5069 -78.9881 24° Northeast 445 512 39,000  Level Washington Center
Tue 12:42:57 PM 35.6214 -78.9267 24° Northeast 445 512 39,000  Level Washington Center
Tue 12:43:57 PM 35.7358 -78.8622 25° Northeast 445 512 39,000  Level Washington Center
Tue 12:44:57 PM 35.8544 -78.8006 23° Northeast 445 512 39,000  Level Washington Center
Tue 12:45:57 PM 35.9611 -78.7100 34° Northeast 451 519 39,000  Level Washington Center
Tue 12:46:57 PM 36.0656 -78.6189 35° Northeast 457 526 39,000  Level Washington Center
Tue 12:47:58 PM 36.1703 -78.5278 35° Northeast 457 526 39,000  Level Washington Center
Tue 12:48:58 PM 36.2747 -78.4339 36° Northeast 457 526 39,000  Level Washington Center
Tue 12:49:57 PM 36.3600 -78.3569 36° Northeast 457 526 39,000  Level Washington Center
Tue 12:50:57 PM 36.4642 -78.2675 35° Northeast 457 526 39,000  Level Washington Center
Tue 12:51:57 PM 36.5750 -78.1653 37° Northeast 457 526 39,000  Level Washington Center
Tue 12:52:58 PM 36.6856 -78.0656 36° Northeast 452 520 39,000  Level Washington Center
Tue 12:53:57 PM 36.7769 -77.9803 37° Northeast 452 520 39,000  Level Washington Center
Tue 12:54:58 PM 36.8728 -77.8819 39° Northeast 452 520 39,000  Level Washington Center
Tue 12:55:57 PM 36.9503 -77.7517 53° Northeast 452 520 39,000  Level Washington Center
Tue 12:56:57 PM 37.0297 -77.6239 52° Northeast 458 527 39,000  Level Washington Center
Tue 12:57:57 PM 37.1069 -77.4931 53° Northeast 464 534 39,000  Level Washington Center
Tue 12:58:57 PM 37.1842 -77.3619 53° Northeast 464 534 39,000  Level Washington Center
Tue 12:59:57 PM 37.2589 -77.2333 54° Northeast 464 534 39,000  Level Washington Center
Tue 01:00:57 PM 37.3461 -77.1069 49° Northeast 475 547 39,000  Level Washington Center
Tue 01:01:57 PM 37.4639 -77.0153 32° Northeast 459 528 39,000  Level Washington Center
Tue 01:02:57 PM 37.5775 -76.9333 30° Northeast 454 522 39,000  Level Washington Center
Tue 01:03:57 PM 37.6828 -76.8539 31° Northeast 449 517 39,000  Level Washington Center
Tue 01:04:58 PM 37.7878 -76.7742 31° Northeast 449 517 39,000  Level Washington Center
Tue 01:05:57 PM 37.8950 -76.6944 30° Northeast 449 517 39,000  Level Washington Center
Tue 01:06:57 PM 38.0042 -76.6142 30° Northeast 449 517 39,000  Level Washington Center
Tue 01:07:57 PM 38.1111 -76.5311 31° Northeast 449 517 39,000  Level Washington Center
Tue 01:08:57 PM 38.2181 -76.4533 30° Northeast 449 517 39,000  Level Washington Center
Tue 01:09:57 PM 38.3228 -76.3672 33° Northeast 449 517 39,000  Level Washington Center
Tue 01:10:57 PM 38.4172 -76.2781 36° Northeast 454 522 39,000  Level Washington Center
Tue 01:11:57 PM 38.5200 -76.1861 35° Northeast 459 528 39,000  Level Washington Center
Tue 01:12:57 PM 38.6247 -76.0914 35° Northeast 454 522 39,000  Level Washington Center
Tue 01:13:57 PM 38.7250 -75.9961 37° Northeast 454 522 39,000  Level Washington Center
Tue 01:14:57 PM 38.8275 -75.9033 35° Northeast 454 522 39,000  Level Washington Center
Tue 01:15:57 PM 38.9278 -75.8050 37° Northeast 454 522 39,000  Level Washington Center
Tue 01:16:57 PM 39.0278 -75.7119 36° Northeast 454 522 39,000  Level Washington Center
Tue 01:17:57 PM 39.1281 -75.6183 36° Northeast 454 522 39,000  Level Washington Center
Tue 01:18:57 PM 39.2300 -75.5192 37° Northeast 454 522 39,000  Level Washington Center
Tue 01:19:57 PM 39.3281 -75.4333 34° Northeast 448 516 39,000  Level Washington Center
Tue 01:20:57 PM 39.4300 -75.3417 35° Northeast 448 516 39,000  Level Washington Center
Tue 01:21:57 PM 39.5297 -75.2472 36° Northeast 442 509 39,000  Level Washington Center
Tue 01:24:13 PM 39.7614 -75.0350 35° Northeast 431 496 39,000  Level New York Center
Tue 01:25:10 PM 39.8514 -74.9619 32° Northeast 439 505 39,000  Level New York Center
Tue 01:26:11 PM 39.9661 -74.8444 38° Northeast 456 525 39,000  Level New York Center
Tue 01:27:11 PM 40.0658 -74.7906 22° Northeast 425 489 39,000  Level New York Center
Tue 01:28:12 PM 40.1797 -74.7536 14° North 412 474 39,000  Level New York Center
Tue 01:29:12 PM 40.2939 -74.7086 17° North 425 489 39,000  Level New York Center
Tue 01:30:12 PM 40.4097 -74.6689 15° North 425 489 39,000  Level New York Center
Tue 01:31:10 PM 40.5214 -74.6286 15° North 425 489 39,000  Level New York Center
Tue 01:32:11 PM 40.6375 -74.5833 16° North 425 489 39,000  Level New York Center
Tue 01:34:38 PM 40.9167 -74.4836 15° North 436 502 39,000  Level Boston Center
Tue 01:35:39 PM 41.0194 -74.4483 15° North 431 496 39,000  Level Boston Center
Tue 01:36:39 PM 41.1453 -74.4053 14° North 422 486 39,000 -51 Level Boston Center
Tue 01:37:37 PM 41.2567 -74.3619 16° North 422 486 38,900 -559 Descending Boston Center
Tue 01:38:37 PM 41.3697 -74.3211 15° North 422 486 37,900 -984 Descending Boston Center
Tue 01:39:39 PM 41.4808 -74.2828 14° North 416 479 36,900 -900 Descending Boston Center
Tue 01:40:37 PM 41.5839 -74.2275 22° Northeast 427 491 36,100 -908 Descending Boston Center
Tue 01:41:38 PM 41.6714 -74.0936 49° Northeast 437 503 35,100 -934 Descending Boston Center
Tue 01:42:39 PM 41.7567 -73.9594 50° Northeast 459 528 34,200 -942 Descending Boston Center
Tue 01:43:39 PM 41.8397 -73.8278 50° Northeast 460 529 33,200 -966 Descending Boston Center
Tue 01:44:37 PM 41.9267 -73.6875 50° Northeast 465 535 32,300 -966 Descending Boston Center
Tue 01:45:37 PM 42.0156 -73.5494 49° Northeast 477 549 31,300 -1,033 Descending Boston Center
Tue 01:46:39 PM 42.1044 -73.4083 50° Northeast 482 555 30,200 -1,033 Descending Boston Center
Tue 01:47:39 PM 42.1847 -73.2806 50° Northeast 469 540 29,200 -909 Descending Boston Center
Tue 01:48:51 PM 42.2689 -73.1472 50° Northeast 457 526 28,200 -1,662 Descending Boston Center
Tue 01:49:49 PM 42.3678 -72.9853 50° Northeast 452 520 25,600 -2,370 Descending Boston Center
Tue 01:50:50 PM 42.4433 -72.8622 50° Northeast 446 513 23,500 -2,066 Descending Boston Center
Tue 01:51:51 PM 42.5167 -72.7414 51° Northeast 432 497 21,400 -2,231 Descending Boston Center
Tue 01:52:51 PM 42.5942 -72.6150 50° Northeast 406 467 19,000 -2,231 Descending Boston Center
Tue 01:53:52 PM 42.6422 -72.4739 65° Northeast 396 456 16,900 -2,237 Descending Boston Center
Tue 01:54:49 PM 42.6881 -72.3356 66° East 396 456 14,600 -2,359 Descending Boston Center
Tue 01:55:49 PM 42.7314 -72.1969 67° East 396 456 12,300 -2,083 Descending Boston Center
Tue 01:56:50 PM 42.7769 -72.0611 65° Northeast 391 450 10,400 -1,587 Descending Boston Center
Tue 01:57:50 PM 42.8161 -71.9419 66° East 358 412 9,100 -1,289 Descending Boston Center
Tue 01:58:51 PM 42.8342 -71.8200 79° East 332 382 7,800 -1,388 Descending Boston Center
Tue 01:59:51 PM 42.8733 -71.7064 65° Northeast 320 368 6,300 -1,190 Descending Boston Center
Tue 02:00:52 PM 42.9247 -71.6064 55° Northeast 315 362 5,400 -864 Descending Boston Center
Tue 02:01:49 PM 42.9803 -71.5319 44° Northeast 285 328 4,600 -1,026 Descending Boston Center
Tue 02:02:49 PM 43.0236 -71.4631 49° Northeast 250 288 3,400 -1,091 Descending Boston Center
Tue 02:03:50 PM 43.0064 -71.4039 112° Southeast 185 213 2,400 -1,140 Descending Boston Center
Tue 02:04:50 PM 42.9728 -71.3958 170° South 103 119 1,100 -992 Descending Boston Center
Tue 02:05:51 PM 42.9481 -71.4275 223° Southwest 86 99 400 3,917 Descending Boston Center
Tue 02:06:51 PM 42.9272 -71.4278 181° South 86 99 9,000 4,264 Climbing Boston Center
Tue 02:07:52 PM 42.9067 -71.4367 198° South 86 99 9,000  Level Boston Center
Tue 02:08:51 PM 42.8858 -71.4425 192° South 86 99 9,000  Level Boston Center
Tue 02:09:52 PM 42.8650 -71.4514 197° South 86 99 9,000  Level Boston Center
Tue 02:11:00 PM 42.9328 -71.4358 16° North  Level Estimated
Tue 02:18:00 PM 42.9328 -71.4358 316° Northwest  Level Estimated
Tue 02:19:00 PM 42.9328 -71.4358 316° Northwest  Level Estimated
Tue 02:20:00 PM 42.9328 -71.4358 316° Northwest  Level Estimated

Login

Don't have an account? Register now (free) for customized features, flight alerts, and more!